createdAt,value
2018-06-04T00:00:50.776Z,12.12
2018-06-04T00:01:50.698Z,12.13
2018-06-04T00:02:50.707Z,12
2018-06-04T00:03:50.713Z,12
2018-06-04T00:04:50.744Z,12.06
2018-06-04T00:05:50.858Z,12.23
2018-06-04T00:06:50.724Z,12.19
2018-06-04T00:07:50.701Z,12.24
2018-06-04T00:08:50.748Z,12.28
2018-06-04T00:09:50.712Z,12.21
2018-06-04T00:10:50.692Z,12.18
2018-06-04T00:11:50.686Z,12.08
2018-06-04T00:12:50.680Z,12.26
2018-06-04T00:13:50.715Z,12.23
2018-06-04T00:14:50.669Z,12.15
2018-06-04T00:15:50.728Z,12.1
2018-06-04T00:16:50.729Z,12.19
2018-06-04T00:17:50.678Z,12.22
2018-06-04T00:18:50.656Z,12.23
2018-06-04T00:19:50.677Z,12.16
2018-06-04T00:20:50.831Z,12.17
2018-06-04T00:21:50.694Z,12.2
2018-06-04T00:22:50.717Z,12.04
2018-06-04T00:23:50.829Z,11.99
2018-06-04T00:24:50.727Z,12.07
2018-06-04T00:25:50.678Z,12.05
2018-06-04T00:26:50.692Z,12.17
2018-06-04T00:27:50.745Z,12.09
2018-06-04T00:28:50.713Z,12.05
2018-06-04T00:29:50.701Z,12.02
2018-06-04T00:30:50.782Z,12.08
2018-06-04T00:31:50.681Z,11.98
2018-06-04T00:32:50.706Z,12.01
2018-06-04T00:33:50.683Z,11.91
2018-06-04T00:34:50.677Z,11.92
2018-06-04T00:35:50.667Z,11.88
2018-06-04T00:36:50.695Z,11.95
2018-06-04T00:37:50.681Z,11.98
2018-06-04T00:38:50.664Z,11.9
2018-06-04T00:39:50.697Z,11.89
2018-06-04T00:40:50.668Z,11.79
2018-06-04T00:41:50.718Z,11.82
2018-06-04T00:42:50.674Z,11.84
2018-06-04T00:43:50.651Z,11.97
2018-06-04T00:44:50.711Z,11.96
2018-06-04T00:45:50.660Z,11.8
2018-06-04T00:46:50.662Z,11.77
2018-06-04T00:47:50.698Z,11.83
2018-06-04T00:48:50.717Z,11.77
2018-06-04T00:49:50.708Z,11.76
2018-06-04T00:50:50.657Z,11.8
2018-06-04T00:51:50.671Z,11.72
2018-06-04T00:52:50.662Z,11.8
2018-06-04T00:53:50.727Z,11.7
2018-06-04T00:54:50.715Z,11.74
2018-06-04T00:55:50.676Z,11.7
2018-06-04T00:56:50.724Z,11.7
2018-06-04T00:57:50.670Z,11.71
2018-06-04T00:58:50.721Z,11.75
2018-06-04T00:59:51.036Z,11.78
2018-06-04T01:00:50.835Z,11.74
2018-06-04T01:01:50.686Z,11.78
2018-06-04T01:02:50.703Z,11.72
2018-06-04T01:03:51.151Z,11.85
2018-06-04T01:04:50.702Z,11.85
2018-06-04T01:05:50.697Z,11.82
2018-06-04T01:06:50.833Z,11.81
2018-06-04T01:07:50.861Z,11.82
2018-06-04T01:08:50.837Z,11.7
2018-06-04T01:09:50.676Z,11.72
2018-06-04T01:10:50.644Z,11.84
2018-06-04T01:11:50.771Z,11.82
2018-06-04T01:12:50.716Z,11.75
2018-06-04T01:13:50.713Z,11.84
2018-06-04T01:14:50.691Z,11.82
2018-06-04T01:15:50.713Z,11.8
2018-06-04T01:16:50.801Z,11.79
2018-06-04T01:17:50.697Z,11.78
2018-06-04T01:18:50.985Z,11.74
2018-06-04T01:19:50.684Z,11.77
2018-06-04T01:20:50.967Z,11.64
2018-06-04T01:21:50.648Z,11.8
2018-06-04T01:22:50.701Z,11.76
2018-06-04T01:23:50.692Z,11.73
2018-06-04T01:24:50.676Z,11.79
2018-06-04T01:25:50.666Z,11.82
2018-06-04T01:26:50.678Z,11.85
2018-06-04T01:27:50.702Z,11.73
2018-06-04T01:28:50.665Z,11.71
2018-06-04T01:29:50.648Z,11.72
2018-06-04T01:30:50.680Z,11.82
2018-06-04T01:31:50.652Z,11.66
2018-06-04T01:32:50.881Z,11.83
2018-06-04T01:33:50.642Z,11.9
2018-06-04T01:34:50.657Z,11.76
2018-06-04T01:35:50.745Z,11.73
2018-06-04T01:36:50.734Z,11.84
2018-06-04T01:37:50.654Z,11.87
2018-06-04T01:38:50.685Z,11.83
2018-06-04T01:39:50.717Z,11.85
2018-06-04T01:40:50.650Z,11.84
2018-06-04T01:41:50.661Z,11.77
2018-06-04T01:42:50.667Z,11.82
2018-06-04T01:43:50.686Z,11.89
2018-06-04T01:44:51.368Z,11.81
2018-06-04T01:45:50.720Z,11.89
2018-06-04T01:46:50.687Z,11.89
2018-06-04T01:47:50.639Z,11.85
2018-06-04T01:48:50.670Z,11.85
2018-06-04T01:49:50.674Z,11.92
2018-06-04T01:50:50.696Z,11.87
2018-06-04T01:51:50.674Z,11.84
2018-06-04T01:52:50.663Z,11.84
2018-06-04T01:53:50.689Z,11.75
2018-06-04T01:54:50.646Z,11.86
2018-06-04T01:55:50.650Z,11.94
2018-06-04T01:56:50.768Z,11.98
2018-06-04T01:57:50.650Z,11.85
2018-06-04T01:58:50.705Z,11.93
2018-06-04T01:59:50.641Z,11.81
2018-06-04T02:00:50.687Z,11.92
2018-06-04T02:01:50.665Z,11.82
2018-06-04T02:02:50.665Z,11.94
2018-06-04T02:03:50.792Z,11.92
2018-06-04T02:04:50.663Z,11.92
2018-06-04T02:05:50.675Z,11.94
2018-06-04T02:06:50.664Z,11.98
2018-06-04T02:07:50.661Z,12.02
2018-06-04T02:08:50.645Z,11.94
2018-06-04T02:09:50.676Z,11.97
2018-06-04T02:10:50.652Z,11.98
2018-06-04T02:11:50.672Z,11.96
2018-06-04T02:12:50.689Z,11.95
2018-06-04T02:13:50.672Z,11.86
2018-06-04T02:14:50.684Z,11.92
2018-06-04T02:15:50.865Z,11.94
2018-06-04T02:16:50.654Z,11.96
2018-06-04T02:17:50.637Z,12
2018-06-04T02:18:50.671Z,11.95
2018-06-04T02:19:50.674Z,11.98
2018-06-04T02:20:50.664Z,11.89
2018-06-04T02:21:50.970Z,12
2018-06-04T02:22:50.707Z,12.06
2018-06-04T02:23:50.639Z,12.1
2018-06-04T02:24:50.636Z,12.07
2018-06-04T02:25:50.633Z,12.08
2018-06-04T02:26:50.648Z,12.11
2018-06-04T02:27:50.638Z,12.02
2018-06-04T02:28:50.835Z,12.06
2018-06-04T02:29:50.641Z,12.07
2018-06-04T02:30:50.686Z,12.03
2018-06-04T02:31:50.646Z,11.95
2018-06-04T02:32:50.661Z,12.04
2018-06-04T02:33:50.680Z,12.03
2018-06-04T02:34:50.685Z,11.88
2018-06-04T02:35:50.680Z,11.95
2018-06-04T02:36:50.636Z,12.06
2018-06-04T02:37:50.710Z,12.02
2018-06-04T02:38:50.644Z,11.98
2018-06-04T02:39:50.772Z,12.03
2018-06-04T02:40:50.644Z,11.99
2018-06-04T02:41:50.728Z,12.02
2018-06-04T02:42:50.749Z,12.09
2018-06-04T02:43:50.667Z,12.04
2018-06-04T02:44:50.824Z,11.96
2018-06-04T02:45:50.665Z,11.99
2018-06-04T02:46:50.712Z,12.02
2018-06-04T02:47:50.643Z,11.91
2018-06-04T02:48:50.645Z,12.05
2018-06-04T02:49:51.147Z,12.01
2018-06-04T02:50:50.727Z,12.08
2018-06-04T02:51:50.629Z,12.02
2018-06-04T02:52:50.632Z,12.02
2018-06-04T02:53:50.648Z,12.07
2018-06-04T02:54:50.648Z,12.11
2018-06-04T02:55:50.692Z,12.15
2018-06-04T02:56:50.689Z,12.13
2018-06-04T02:57:50.671Z,12.04
2018-06-04T02:58:50.686Z,12.18
2018-06-04T02:59:50.671Z,12.06
2018-06-04T03:00:50.657Z,12.08
2018-06-04T03:01:50.667Z,12.11
2018-06-04T03:02:50.667Z,12.11
2018-06-04T03:03:50.623Z,12.08
2018-06-04T03:04:50.612Z,12.14
2018-06-04T03:05:50.612Z,12.09
2018-06-04T03:06:50.681Z,12.07
2018-06-04T03:07:50.630Z,12.07
2018-06-04T03:08:50.654Z,12.05
2018-06-04T03:09:50.642Z,12.15
2018-06-04T03:10:50.649Z,12.08
2018-06-04T03:11:50.648Z,12.09
2018-06-04T03:12:50.641Z,12.09
2018-06-04T03:13:50.642Z,11.97
2018-06-04T03:14:50.635Z,12.14
2018-06-04T03:15:51.266Z,12.11
2018-06-04T03:16:50.655Z,12.06
2018-06-04T03:17:50.674Z,12.07
2018-06-04T03:18:50.914Z,12.06
2018-06-04T03:19:50.956Z,11.97
2018-06-04T03:20:50.627Z,12.02
2018-06-04T03:21:50.608Z,12.04
2018-06-04T03:22:50.689Z,12.13
2018-06-04T03:23:50.607Z,12.08
2018-06-04T03:24:50.639Z,12.03
2018-06-04T03:25:50.656Z,12.1
2018-06-04T03:26:50.642Z,12.09
2018-06-04T03:27:50.677Z,11.99
2018-06-04T03:28:50.647Z,12
2018-06-04T03:29:50.614Z,12.06
2018-06-04T03:30:50.624Z,11.96
2018-06-04T03:31:50.650Z,12.01
2018-06-04T03:32:50.631Z,11.89
2018-06-04T03:33:50.948Z,11.95
2018-06-04T03:34:50.784Z,12.03
2018-06-04T03:35:50.649Z,11.98
2018-06-04T03:36:50.797Z,11.96
2018-06-04T03:37:50.618Z,11.98
2018-06-04T03:38:50.797Z,11.91
2018-06-04T03:39:50.648Z,11.93
2018-06-04T03:40:50.811Z,11.93
2018-06-04T03:41:50.685Z,11.83
2018-06-04T03:42:50.632Z,11.92
2018-06-04T03:43:50.644Z,11.94
2018-06-04T03:44:50.618Z,11.92
2018-06-04T03:45:50.710Z,11.9
2018-06-04T03:46:50.643Z,11.88
2018-06-04T03:47:50.594Z,11.89
2018-06-04T03:48:50.721Z,11.88
2018-06-04T03:49:50.616Z,11.86
2018-06-04T03:50:50.674Z,11.89
2018-06-04T03:51:50.652Z,11.93
2018-06-04T03:52:50.645Z,11.89
2018-06-04T03:53:50.613Z,11.88
2018-06-04T03:54:50.888Z,11.89
2018-06-04T03:55:50.616Z,11.89
2018-06-04T03:56:50.642Z,11.91
2018-06-04T03:57:50.614Z,11.81
2018-06-04T03:58:50.627Z,12.04
2018-06-04T03:59:50.820Z,11.97
2018-06-04T04:00:50.635Z,11.92
2018-06-04T04:01:50.991Z,11.91
2018-06-04T04:02:50.894Z,12.05
2018-06-04T04:03:50.608Z,12.02
2018-06-04T04:04:50.624Z,12.03
2018-06-04T04:05:50.603Z,12.06
2018-06-04T04:06:50.599Z,12.1
2018-06-04T04:07:50.624Z,11.98
2018-06-04T04:08:50.654Z,11.92
2018-06-04T04:09:50.636Z,11.99
2018-06-04T04:10:50.620Z,11.99
2018-06-04T04:11:50.624Z,12.01
2018-06-04T04:12:50.627Z,12.09
2018-06-04T04:13:50.638Z,12.08
2018-06-04T04:14:50.632Z,12.13
2018-06-04T04:15:50.670Z,12.08
2018-06-04T04:16:50.616Z,12.08
2018-06-04T04:17:50.633Z,12.02
2018-06-04T04:18:50.650Z,12.08
2018-06-04T04:19:50.610Z,12.17
2018-06-04T04:20:50.615Z,12.09
2018-06-04T04:21:50.619Z,12.08
2018-06-04T04:22:50.596Z,12.16
2018-06-04T04:23:50.635Z,12.17
2018-06-04T04:24:50.984Z,12.14
2018-06-04T04:25:50.607Z,12.16
2018-06-04T04:26:50.811Z,12.12
2018-06-04T04:27:51.594Z,12.19
2018-06-04T04:28:50.768Z,12.18
2018-06-04T04:29:50.653Z,12.24
2018-06-04T04:30:50.581Z,12.24
2018-06-04T04:31:50.614Z,12.22
2018-06-04T04:32:50.665Z,12.28
2018-06-04T04:33:50.619Z,12.16
2018-06-04T04:34:50.593Z,12.2
2018-06-04T04:35:50.638Z,12.29
2018-06-04T04:36:50.605Z,12.2
2018-06-04T04:37:51.198Z,12.2
2018-06-04T04:38:50.656Z,12.18
2018-06-04T04:39:50.630Z,12.18
2018-06-04T04:40:50.706Z,12.15
2018-06-04T04:41:50.593Z,12.05
2018-06-04T04:42:50.619Z,12.14
2018-06-04T04:43:50.601Z,12.09
2018-06-04T04:44:50.585Z,12.15
2018-06-04T04:45:50.641Z,12.4
2018-06-04T04:46:50.620Z,12.32
2018-06-04T04:47:50.845Z,12.41
2018-06-04T04:48:50.582Z,12.43
2018-06-04T04:49:50.576Z,12.21
2018-06-04T04:50:50.563Z,12.2
2018-06-04T04:51:50.604Z,12.28
2018-06-04T04:52:50.618Z,12.31
2018-06-04T04:53:50.597Z,12.3
2018-06-04T04:54:50.604Z,12.42
2018-06-04T04:55:50.648Z,12.55
2018-06-04T04:56:50.605Z,12.55
2018-06-04T04:57:50.647Z,12.58
2018-06-04T04:58:50.593Z,12.49
2018-06-04T04:59:50.768Z,12.44
2018-06-04T05:00:50.572Z,12.39
2018-06-04T05:01:50.935Z,12.31
2018-06-04T05:02:50.627Z,12.52
2018-06-04T05:03:50.588Z,12.51
2018-06-04T05:04:50.599Z,12.5
2018-06-04T05:05:50.584Z,12.4
2018-06-04T05:06:50.762Z,12.39
2018-06-04T05:07:50.584Z,12.42
2018-06-04T05:08:50.609Z,12.43
2018-06-04T05:09:50.696Z,12.39
2018-06-04T05:10:51.504Z,12.4
2018-06-04T05:11:50.607Z,12.38
2018-06-04T05:12:50.615Z,12.34
2018-06-04T05:13:50.589Z,12.41
2018-06-04T05:14:50.585Z,12.48
2018-06-04T05:15:50.620Z,12.45
2018-06-04T05:16:50.577Z,12.4
2018-06-04T05:17:50.808Z,12.42
2018-06-04T05:18:50.948Z,12.36
2018-06-04T05:19:50.580Z,12.41
2018-06-04T05:20:50.565Z,12.43
2018-06-04T05:21:50.572Z,12.48
2018-06-04T05:22:50.575Z,12.5
2018-06-04T05:23:50.840Z,12.52
2018-06-04T05:24:50.595Z,12.46
2018-06-04T05:25:50.579Z,12.44
2018-06-04T05:26:50.617Z,12.53
2018-06-04T05:27:50.570Z,12.42
2018-06-04T05:28:50.589Z,12.37
2018-06-04T05:29:50.572Z,12.46
2018-06-04T05:30:50.567Z,12.57
2018-06-04T05:31:51.137Z,12.61
2018-06-04T05:32:50.588Z,12.63
2018-06-04T05:33:50.854Z,12.68
2018-06-04T05:34:51.666Z,12.58
2018-06-04T05:35:50.752Z,12.61
2018-06-04T05:36:50.606Z,12.61
2018-06-04T05:37:50.662Z,12.68
2018-06-04T05:38:50.679Z,12.63
2018-06-04T05:39:50.636Z,12.58
2018-06-04T05:40:50.620Z,12.58
2018-06-04T05:41:50.645Z,12.55
2018-06-04T05:42:50.727Z,12.56
2018-06-04T05:43:50.672Z,12.59
2018-06-04T05:44:50.591Z,12.59
2018-06-04T05:45:50.570Z,12.63
2018-06-04T05:46:50.650Z,12.6
2018-06-04T05:47:50.571Z,12.63
2018-06-04T05:48:50.859Z,12.64
2018-06-04T05:49:50.581Z,12.65
2018-06-04T05:50:50.579Z,12.58
2018-06-04T05:51:50.604Z,12.6
2018-06-04T05:52:50.600Z,12.64
2018-06-04T05:53:50.599Z,12.58
2018-06-04T05:54:50.716Z,12.59
2018-06-04T05:55:50.549Z,12.65
2018-06-04T05:56:50.568Z,12.71
2018-06-04T05:57:50.622Z,12.67
2018-06-04T05:58:50.599Z,12.75
2018-06-04T05:59:50.586Z,12.76
2018-06-04T06:00:50.804Z,12.92
2018-06-04T06:01:51.056Z,12.76
2018-06-04T06:02:50.587Z,12.6
2018-06-04T06:03:50.696Z,12.7
2018-06-04T06:04:50.624Z,12.7
2018-06-04T06:05:50.586Z,12.73
2018-06-04T06:06:50.602Z,12.74
2018-06-04T06:07:50.623Z,12.76
2018-06-04T06:08:50.620Z,12.79
2018-06-04T06:09:50.646Z,12.73
2018-06-04T06:10:50.594Z,12.74
2018-06-04T06:11:50.660Z,12.72
2018-06-04T06:12:50.565Z,12.77
2018-06-04T06:13:50.549Z,12.79
2018-06-04T06:14:50.603Z,12.77
2018-06-04T06:15:50.802Z,12.78
2018-06-04T06:16:50.551Z,12.74
2018-06-04T06:17:50.698Z,12.81
2018-06-04T06:18:50.590Z,12.82
2018-06-04T06:19:50.952Z,12.8
2018-06-04T06:20:50.564Z,12.87
2018-06-04T06:21:50.574Z,12.87
2018-06-04T06:22:50.580Z,12.92
2018-06-04T06:23:50.548Z,13.02
2018-06-04T06:24:50.590Z,12.82
2018-06-04T06:25:50.551Z,12.91
2018-06-04T06:26:50.566Z,13
2018-06-04T06:27:50.562Z,12.74
2018-06-04T06:28:50.588Z,12.77
2018-06-04T06:29:50.605Z,12.72
2018-06-04T06:30:51.045Z,12.84
2018-06-04T06:31:50.578Z,12.8
2018-06-04T06:32:50.593Z,12.75
2018-06-04T06:33:50.842Z,12.86
2018-06-04T06:34:50.594Z,12.93
2018-06-04T06:35:50.615Z,12.9
2018-06-04T06:36:50.592Z,12.95
2018-06-04T06:37:50.630Z,12.81
2018-06-04T06:38:50.618Z,12.8
2018-06-04T06:39:50.528Z,12.82
2018-06-04T06:40:50.620Z,12.93
2018-06-04T06:41:50.588Z,12.82
2018-06-04T06:42:50.565Z,12.82
2018-06-04T06:43:50.568Z,12.85
2018-06-04T06:44:50.659Z,12.94
2018-06-04T06:45:51.186Z,12.92
2018-06-04T06:46:50.610Z,12.91
2018-06-04T06:47:50.532Z,12.92
2018-06-04T06:48:50.543Z,12.96
2018-06-04T06:49:50.601Z,12.94
2018-06-04T06:50:50.571Z,13.01
2018-06-04T06:51:50.609Z,13.08
2018-06-04T06:52:50.585Z,13.16
2018-06-04T06:53:50.633Z,13.16
2018-06-04T06:54:50.593Z,13.15
2018-06-04T06:55:50.566Z,13.17
2018-06-04T06:56:50.661Z,13
2018-06-04T06:57:50.522Z,13.07
2018-06-04T06:58:50.637Z,13.03
2018-06-04T06:59:50.664Z,13.12
2018-06-04T07:00:50.566Z,13.2
2018-06-04T07:01:50.791Z,13.22
2018-06-04T07:02:50.630Z,13.15
2018-06-04T07:03:50.548Z,13.16
2018-06-04T07:04:50.564Z,13.22
2018-06-04T07:05:50.642Z,13.14
2018-06-04T07:06:50.634Z,13.04
2018-06-04T07:07:50.525Z,13.03
2018-06-04T07:08:50.549Z,13.17
2018-06-04T07:09:50.634Z,13.09
2018-06-04T07:10:50.717Z,13.17
2018-06-04T07:11:50.587Z,13.12
2018-06-04T07:12:50.516Z,13.24
2018-06-04T07:13:50.550Z,13.29
2018-06-04T07:14:50.597Z,13.18
2018-06-04T07:15:50.605Z,13.26
2018-06-04T07:16:50.613Z,13.21
2018-06-04T07:17:50.543Z,13.08
2018-06-04T07:18:50.586Z,13.18
2018-06-04T07:19:50.525Z,13.2
2018-06-04T07:20:50.567Z,13.18
2018-06-04T07:21:50.609Z,13.35
2018-06-04T07:22:50.577Z,13.38
2018-06-04T07:23:50.535Z,13.49
2018-06-04T07:24:50.555Z,13.46
2018-06-04T07:25:50.649Z,13.36
2018-06-04T07:26:51.096Z,13.38
2018-06-04T07:27:50.664Z,13.49
2018-06-04T07:28:50.591Z,13.41
2018-06-04T07:29:50.574Z,13.38
2018-06-04T07:30:50.566Z,13.45
2018-06-04T07:31:50.536Z,13.57
2018-06-04T07:32:50.606Z,13.3
2018-06-04T07:33:50.544Z,13.38
2018-06-04T07:34:50.966Z,13.47
2018-06-04T07:35:50.506Z,13.46
2018-06-04T07:36:50.600Z,13.46
2018-06-04T07:37:50.540Z,13.37
2018-06-04T07:38:50.533Z,13.51
2018-06-04T07:39:50.523Z,13.38
2018-06-04T07:40:50.540Z,13.39
2018-06-04T07:41:50.570Z,13.32
2018-06-04T07:42:50.586Z,13.37
2018-06-04T07:43:56.357Z,13.51
2018-06-04T07:44:50.549Z,13.45
2018-06-04T07:45:50.522Z,13.42
2018-06-04T07:46:50.502Z,13.61
2018-06-04T07:47:50.534Z,13.64
2018-06-04T07:48:50.513Z,13.48
2018-06-04T07:49:50.707Z,13.37
2018-06-04T07:50:50.538Z,13.37
2018-06-04T07:51:50.507Z,13.46
2018-06-04T07:52:50.531Z,13.56
2018-06-04T07:53:50.506Z,13.55
2018-06-04T07:54:50.514Z,13.57
2018-06-04T07:55:50.521Z,13.44
2018-06-04T07:56:50.546Z,13.47
2018-06-04T07:57:50.571Z,13.57
2018-06-04T07:58:50.603Z,13.6
2018-06-04T07:59:50.510Z,13.56
2018-06-04T08:00:51.149Z,13.61
2018-06-04T08:01:50.560Z,13.74
2018-06-04T08:02:50.586Z,13.75
2018-06-04T08:03:50.518Z,13.81
2018-06-04T08:04:50.507Z,13.68
2018-06-04T08:05:50.527Z,13.48
2018-06-04T08:06:50.540Z,13.54
2018-06-04T08:07:50.519Z,13.54
2018-06-04T08:08:50.533Z,13.54
2018-06-04T08:09:50.543Z,13.67
2018-06-04T08:10:50.538Z,13.53
2018-06-04T08:11:50.593Z,13.28
2018-06-04T08:12:50.502Z,13.28
2018-06-04T08:13:50.553Z,13.33
2018-06-04T08:14:50.669Z,13.39
2018-06-04T08:15:50.691Z,13.43
2018-06-04T08:16:50.534Z,13.42
2018-06-04T08:17:50.544Z,13.54
2018-06-04T08:18:50.540Z,13.72
2018-06-04T08:19:50.520Z,13.64
2018-06-04T08:20:50.516Z,13.52
2018-06-04T08:21:50.517Z,13.77
2018-06-04T08:22:50.521Z,13.56
2018-06-04T08:23:50.668Z,13.59
2018-06-04T08:24:50.513Z,13.62
2018-06-04T08:25:50.547Z,13.66
2018-06-04T08:26:50.568Z,13.58
2018-06-04T08:27:50.506Z,13.84
2018-06-04T08:28:50.502Z,13.69
2018-06-04T08:29:50.492Z,13.65
2018-06-04T08:30:50.565Z,13.55
2018-06-04T08:31:50.568Z,13.59
2018-06-04T08:32:50.512Z,13.61
2018-06-04T08:33:50.487Z,13.62
2018-06-04T08:34:50.520Z,13.44
2018-06-04T08:35:50.500Z,13.73
2018-06-04T08:36:50.552Z,13.7
2018-06-04T08:37:50.514Z,13.57
2018-06-04T08:38:50.509Z,13.7
2018-06-04T08:39:50.507Z,13.68
2018-06-04T08:40:50.566Z,13.78
2018-06-04T08:41:50.696Z,13.6
2018-06-04T08:42:50.534Z,13.67
2018-06-04T08:43:50.489Z,13.74
2018-06-04T08:44:50.513Z,13.95
2018-06-04T08:45:50.805Z,13.96
2018-06-04T08:46:50.797Z,14.16
2018-06-04T08:47:50.640Z,13.79
2018-06-04T08:48:50.526Z,13.96
2018-06-04T08:49:50.522Z,13.81
2018-06-04T08:50:50.553Z,13.77
2018-06-04T08:51:50.521Z,13.71
2018-06-04T08:52:50.511Z,13.83
2018-06-04T08:53:50.507Z,13.89
2018-06-04T08:54:50.552Z,13.86
2018-06-04T08:55:50.512Z,13.69
2018-06-04T08:56:50.513Z,13.95
2018-06-04T08:57:50.502Z,13.9
2018-06-04T08:58:50.522Z,13.7
2018-06-04T08:59:50.486Z,13.71
2018-06-04T09:00:50.613Z,13.76
2018-06-04T09:01:50.507Z,13.66
2018-06-04T09:02:50.563Z,13.79
2018-06-04T09:03:50.621Z,13.86
2018-06-04T09:04:50.521Z,14
2018-06-04T09:05:50.568Z,13.84
2018-06-04T09:06:50.504Z,13.78
2018-06-04T09:07:50.696Z,13.79
2018-06-04T09:08:50.519Z,13.93
2018-06-04T09:09:50.886Z,13.95
2018-06-04T09:10:50.522Z,13.8
2018-06-04T09:11:50.501Z,13.84
2018-06-04T09:12:50.519Z,14.04
2018-06-04T09:13:50.578Z,13.81
2018-06-04T09:14:50.511Z,13.85
2018-06-04T09:15:50.591Z,13.79
2018-06-04T09:16:50.675Z,13.92
2018-06-04T09:17:50.514Z,14.01
2018-06-04T09:18:50.497Z,13.97
2018-06-04T09:19:50.492Z,13.72
2018-06-04T09:20:50.474Z,13.68
2018-06-04T09:21:50.513Z,13.98
2018-06-04T09:22:50.531Z,13.88
2018-06-04T09:23:50.520Z,13.87
2018-06-04T09:24:50.516Z,13.68
2018-06-04T09:25:50.497Z,13.58
2018-06-04T09:26:50.519Z,13.71
2018-06-04T09:27:50.490Z,13.75
2018-06-04T09:28:50.552Z,13.74
2018-06-04T09:29:50.486Z,13.89
2018-06-04T09:30:50.517Z,13.7
2018-06-04T09:31:50.491Z,13.68
2018-06-04T09:32:50.572Z,13.64
2018-06-04T09:33:50.596Z,13.75
2018-06-04T09:34:50.520Z,13.71
2018-06-04T09:35:50.489Z,13.89
2018-06-04T09:36:50.479Z,13.95
2018-06-04T09:37:50.517Z,13.81
2018-06-04T09:38:50.540Z,13.72
2018-06-04T09:39:50.493Z,13.76
2018-06-04T09:40:50.676Z,13.82
2018-06-04T09:41:50.501Z,13.85
2018-06-04T09:42:50.569Z,13.62
2018-06-04T09:43:50.484Z,13.75
2018-06-04T09:44:50.501Z,13.72
2018-06-04T09:45:50.535Z,14.02
2018-06-04T09:46:50.594Z,13.95
2018-06-04T09:47:50.476Z,13.58
2018-06-04T09:48:50.486Z,13.66
2018-06-04T09:49:50.636Z,13.68
2018-06-04T09:50:50.496Z,13.66
2018-06-04T09:51:50.481Z,13.64
2018-06-04T09:52:50.716Z,13.71
2018-06-04T09:53:50.994Z,13.58
2018-06-04T09:54:50.496Z,13.59
2018-06-04T09:55:50.510Z,13.63
2018-06-04T09:56:50.482Z,13.62
2018-06-04T09:57:50.670Z,13.76
2018-06-04T09:58:50.533Z,13.9
2018-06-04T09:59:50.535Z,13.83
2018-06-04T10:00:50.628Z,13.83
2018-06-04T10:01:50.498Z,13.53
2018-06-04T10:02:50.508Z,13.58
2018-06-04T10:03:50.699Z,13.65
2018-06-04T10:04:50.476Z,13.56
2018-06-04T10:05:50.498Z,13.45
2018-06-04T10:06:50.507Z,13.46
2018-06-04T10:07:50.525Z,13.54
2018-06-04T10:08:50.488Z,13.65
2018-06-04T10:09:50.525Z,13.61
2018-06-04T10:10:50.496Z,13.64
2018-06-04T10:11:50.484Z,13.81
2018-06-04T10:12:50.495Z,13.57
2018-06-04T10:13:50.484Z,13.63
2018-06-04T10:14:50.488Z,13.66
2018-06-04T10:15:50.494Z,13.93
2018-06-04T10:16:50.486Z,13.75
2018-06-04T10:17:50.509Z,13.93
2018-06-04T10:18:50.500Z,14.01
2018-06-04T10:19:50.548Z,14
2018-06-04T10:20:50.502Z,13.95
2018-06-04T10:21:50.525Z,13.42
2018-06-04T10:22:50.516Z,13.55
2018-06-04T10:23:50.525Z,13.6
2018-06-04T10:24:50.512Z,13.64
2018-06-04T10:25:50.511Z,13.62
2018-06-04T10:26:50.468Z,13.55
2018-06-04T10:27:50.809Z,13.51
2018-06-04T10:28:50.498Z,13.73
2018-06-04T10:29:50.735Z,13.53
2018-06-04T10:30:50.643Z,13.65
2018-06-04T10:31:50.486Z,13.73
2018-06-04T10:32:50.512Z,13.6
2018-06-04T10:33:50.532Z,13.78
2018-06-04T10:34:50.556Z,13.69
2018-06-04T10:35:50.544Z,13.57
2018-06-04T10:36:50.519Z,13.52
2018-06-04T10:37:50.577Z,13.79
2018-06-04T10:38:50.481Z,13.89
2018-06-04T10:39:50.478Z,13.81
2018-06-04T10:40:50.629Z,13.06
2018-06-04T10:41:50.488Z,13.16
2018-06-04T10:42:50.530Z,13.27
2018-06-04T10:43:50.484Z,13.45
2018-06-04T10:44:50.488Z,13.46
2018-06-04T10:45:50.487Z,13.71
2018-06-04T10:46:50.889Z,13.83
2018-06-04T10:47:50.516Z,13.98
2018-06-04T10:48:50.490Z,13.88
2018-06-04T10:49:50.499Z,13.55
2018-06-04T10:50:50.521Z,12.99
2018-06-04T10:51:50.504Z,13.19
2018-06-04T10:52:50.587Z,13.4
2018-06-04T10:53:50.606Z,13.44
2018-06-04T10:54:50.476Z,13.71
2018-06-04T10:55:50.626Z,13.6
2018-06-04T10:56:50.491Z,13.02
2018-06-04T10:57:50.460Z,13.47
2018-06-04T10:58:50.472Z,13.12
2018-06-04T10:59:50.447Z,13.01
2018-06-04T11:00:50.502Z,12.57
2018-06-04T11:01:50.482Z,12.44
2018-06-04T11:02:50.528Z,12.3
2018-06-04T11:03:50.479Z,11.59
2018-06-04T11:04:50.771Z,11.73
2018-06-04T11:05:50.551Z,11.78
2018-06-04T11:06:50.469Z,12.06
2018-06-04T11:07:50.530Z,12.4
2018-06-04T11:08:50.478Z,12.55
2018-06-04T11:09:50.566Z,11.88
2018-06-04T11:10:50.520Z,11.15
2018-06-04T11:11:50.455Z,11.29
2018-06-04T11:12:50.688Z,11.56
2018-06-04T11:13:50.486Z,11.12
2018-06-04T11:14:50.457Z,10.84
2018-06-04T11:15:51.153Z,11.23
2018-06-04T11:16:50.492Z,11.61
2018-06-04T11:17:50.457Z,11.27
2018-06-04T11:18:50.933Z,11.26
2018-06-04T11:19:50.459Z,11
2018-06-04T11:20:50.477Z,10.73
2018-06-04T11:21:50.450Z,10.62
2018-06-04T11:22:50.491Z,10.57
2018-06-04T11:23:50.477Z,10.87
2018-06-04T11:24:50.507Z,11.14
2018-06-04T11:25:50.706Z,11.17
2018-06-04T11:26:50.492Z,10.79
2018-06-04T11:27:50.487Z,10.59
2018-06-04T11:28:50.470Z,10.77
2018-06-04T11:29:50.485Z,11.06
2018-06-04T11:30:50.513Z,11.32
2018-06-04T11:31:50.481Z,11.45
2018-06-04T11:32:50.464Z,11.22
2018-06-04T11:33:50.470Z,11.08
2018-06-04T11:34:50.506Z,10.9
2018-06-04T11:35:50.470Z,10.22
2018-06-04T11:36:50.622Z,10.5
2018-06-04T11:37:50.609Z,10.69
2018-06-04T11:38:50.483Z,11.09
2018-06-04T11:39:50.603Z,10.7
2018-06-04T11:40:50.443Z,10.51
2018-06-04T11:41:50.480Z,10.56
2018-06-04T11:42:50.470Z,11.01
2018-06-04T11:43:50.864Z,10.86
2018-06-04T11:44:50.575Z,11.19
2018-06-04T11:45:50.559Z,11.35
2018-06-04T11:46:50.521Z,10.96
2018-06-04T11:47:50.459Z,10.96
2018-06-04T11:48:50.667Z,10.92
2018-06-04T11:49:50.590Z,11.09
2018-06-04T11:50:50.548Z,12.84
2018-06-04T11:51:50.531Z,13.08
2018-06-04T11:52:50.461Z,13.05
2018-06-04T11:53:50.480Z,13.12
2018-06-04T11:54:50.543Z,13.36
2018-06-04T11:55:50.559Z,12.98
2018-06-04T11:56:50.516Z,13.09
2018-06-04T11:57:50.494Z,12.83
2018-06-04T11:58:50.544Z,12.79
2018-06-04T11:59:50.501Z,13.05
2018-06-04T12:00:50.553Z,11.96
2018-06-04T12:01:50.467Z,12.19
2018-06-04T12:02:50.434Z,12.61
2018-06-04T12:03:50.564Z,12.8
2018-06-04T12:04:50.443Z,12.69
2018-06-04T12:05:50.705Z,12.81
2018-06-04T12:06:50.499Z,12.75
2018-06-04T12:07:50.619Z,12.74
2018-06-04T12:08:50.479Z,12.89
2018-06-04T12:09:50.454Z,13.14
2018-06-04T12:10:50.641Z,12.75
2018-06-04T12:11:50.776Z,12.65
2018-06-04T12:12:50.592Z,12.38
2018-06-04T12:13:50.491Z,12.05
2018-06-04T12:14:50.463Z,11.99
2018-06-04T12:15:50.460Z,11.52
2018-06-04T12:16:50.513Z,11.27
2018-06-04T12:17:50.574Z,11.45
2018-06-04T12:18:50.577Z,11.65
2018-06-04T12:19:50.493Z,12.17
2018-06-04T12:20:50.577Z,11.61
2018-06-04T12:21:50.464Z,11.51
2018-06-04T12:22:50.463Z,11.57
2018-06-04T12:23:50.575Z,11.79
2018-06-04T12:24:50.613Z,11.56
2018-06-04T12:25:50.456Z,11.31
2018-06-04T12:26:50.443Z,11.22
2018-06-04T12:27:50.428Z,11.33
2018-06-04T12:28:50.455Z,11.33
2018-06-04T12:29:50.503Z,11.33
2018-06-04T12:30:50.451Z,10.91
2018-06-04T12:31:50.446Z,11.04
2018-06-04T12:32:50.431Z,11.08
2018-06-04T12:33:50.424Z,11.01
2018-06-04T12:34:50.448Z,11.15
2018-06-04T12:35:50.437Z,11.55
2018-06-04T12:36:50.454Z,11.69
2018-06-04T12:37:50.438Z,11.89
2018-06-04T12:38:50.418Z,11.81
2018-06-04T12:39:50.424Z,11.76
2018-06-04T12:40:50.464Z,11.91
2018-06-04T12:41:50.431Z,11.5
2018-06-04T12:42:50.427Z,11.65
2018-06-04T12:43:50.430Z,11.66
2018-06-04T12:44:50.439Z,11.37
2018-06-04T12:45:50.454Z,11.74
2018-06-04T12:46:50.459Z,11.66
2018-06-04T12:47:50.434Z,11.52
2018-06-04T12:48:50.489Z,11.51
2018-06-04T12:49:50.432Z,11.41
2018-06-04T12:50:50.448Z,11.37
2018-06-04T12:51:50.578Z,11.6
2018-06-04T12:52:50.441Z,11.69
2018-06-04T12:53:50.459Z,11.65
2018-06-04T12:54:50.451Z,11.97
2018-06-04T12:55:50.456Z,12.01